Aeroporto :







RITROVATECI SU...

 
LOGIN :

Iscrizione | Disclaimer

   EN    FR    IT 

 









Sommario :    VFR   VFR Marginale   IFR   IFR Intensivo   IFR Molto Intensivo
Visibilità : 
Base nubi : 
>= 8 km
>= 3000ft
5 / 8 km
1000 / 3000 ft
1500m / 5 km
500 / 1000 ft
800 / 1500m
200 / 500 ft
< 800m
< 200 ft
Simboli :   Temporali  Nebbia  Neve Forte  Precipitazioni Forti  Vento > 20 kt






- Altitudine del aeroporto : 160 ft
- Codice IATA : YYG


CYYG - Charlottetown

ULTIMO METAR :
  • 040200Z 04013G19KT 15SM OVC045 00/M01 A3008 RMK SC8 SLP188

METARs OBSOLETI :
  • 040100Z 04016G23KT 15SM OVC044 01/M01 A3008 RMK SC8 SLP188
  • 040000Z 04017G23KT 12SM SCT027 OVC053 01/M01 A3007 RMK SC3SC5 SLP186

TAF TAF CYYG
Valido dal 04 a 00 ore il 04 a 12 ore UTC


032338Z 0400/0412 04015G25KT P6SM BKN050
TEMPO 0400/0412 OVC020 RMK NXT FCST BY 040600Z



MetMap, La meteo Aeronautica in un colpo d'occhio ! - Copyright ORBIFLY Dicembre 2007 - Disclaimer

ORBIFLY MET'MAP TEAM :

Programmazione e sviluppo : Alexandra Zaïnal
Concezione : Baudouin d'Aumeries
Aiuto per la programmazione : Marc-Olivier Méhu
Supporto tecnico e logistico : Manuel Goepfert
Aiuto per la traduzione : Arnaldo La Scala

Contatto : metmap@orbifly.com




FONTI E CREDITI :

   NOAA